Bean Station, TN (37708)

12:07 AM EST on December 10, 2016 (GMT -0500)
Adams Grocery | | Change Station

Elev 1230 ft 36.40 °N, 83.23 °W | Updated 3 minutes ago

Clear
Clear
17.4 °F
Feels Like 17 °F
N
0.0
Wind Variable Wind from North
Gusts 2.2 mph

Today
High -- | Low -- °F
--% Chance of Precip.
Yesterday
High -- | Low -- °F
Precip. -- in
Pressure 30.53 in
Visibility 10.0 miles
Clouds Clear
Windchill 17 °F
Dew Point 7 °F
Humidity 63%
Rainfall 0.00 in
Snow Depth Not available.
7:34 AM 5:18 PM
Waxing Gibbous, 80% visible
METAR K0VG 100430Z AUTO 00000KT 10SM CLR M08/M09 A3053 RMK AO2
Pressure 30.53 in
Visibility 10.0 miles
Clouds Clear
Windchill 17 °F
Dew Point 7 °F
Humidity 63%
Rainfall 0.00 in
Snow Depth Not available.
7:34 AM 5:18 PM
Waxing Gibbous, 80% visible
METAR K0VG 100430Z AUTO 00000KT 10SM CLR M08/M09 A3053 RMK AO2

10-Day Weather Forecast

Almanac

Astronomy

Dec. 10, 2016 Rise Set
Actual Time
Civil Twilight
Nautical Twilight
Astronomical Twilight
Moon
Length of Visible Light
Length of Day
Tomorrow will be .
, % of the Moon is Illuminated

Today's Extremes

State Highs State Lows

Community

WunderPhotos

Upload Photos

1,956,529 photos uploaded!

WunderBlog® & News

Nearby

Air Quality

  Air Quality AQ Index Pollutant
Not available.

Snow Depth

Station Depth Elevation

Earthquake Activity

City Distance Mag. Time & Date
Minimum magnitude displayed is 2.5.

Coastal Water Temperatures

Place Temperature

Stations

Nearby Weather Stations

Station Location Temp. Windchill Dew Point Humidity Wind Precip. Elev Updated Type
                   

Watches & Warnings

There are currently no watches in effect.